• Join FlightAware (Why Join?)
  • Login
  • US Flag 
11:04AM EST


 

Airport Tracker/Info


-or-


 

Live Flight TrackerFlight Track Log ✈ QLK107D ✈ 13-May-2013 ✈ YCFS - YSSY / SYD

Flight Track Log - Related Links

Times and Time Zones

All times are in EDT time to prevent confusion due to time zone crossing. See the QLK107D flight status page for this flight to view local times or setup timezone preferences in your user account.

Time Position Orientation Groundspeed Altitude Reporting Facility
EDT Latitude Longitude Course Direction KTS MPH feet Rate Location/Type
08:21PM -30.3122 153.1172 213° Southwest 22,000  Level Aus ATC (Calculated)
08:21PM -30.3595 153.0791 212° Southwest 22,000 -5,760 Level Aus ATC (Calculated)
08:22PM -30.4069 153.0410 210° Southwest 22,000 -6,900 Level Aus ATC (Calculated)
08:23PM -30.5011 152.9648 215° Southwest  Level FlightAware Approximate
08:23PM -30.4925 152.9828 215° Southwest 370 426 8,200  Level Aus ATC (RADAR)
08:24PM -30.5253 152.9557 215° Southwest 245 282 9,700 2,100 Climbing Aus ATC (RADAR)
08:25PM -30.5793 152.9125 215° Southwest 260 299 11,600 2,040 Climbing Aus ATC (RADAR)
08:25PM -30.6132 152.8827 217° Southwest 263 303 12,800 1,980 Climbing Aus ATC (RADAR)
08:26PM -30.6602 152.8456 214° Southwest 272 313 14,300 1,800 Climbing Aus ATC (RADAR)
08:27PM -30.7007 152.8121 215° Southwest 269 310 15,400 1,680 Climbing Aus ATC (RADAR)
08:28PM -30.8030 152.7276 215° Southwest 268 308 18,300 1,680 Climbing Aus ATC (RADAR)
08:29PM -30.8285 152.7069 215° Southwest 268 308 18,900 1,380 Climbing Aus ATC (RADAR)
08:29PM -30.8651 152.6772 215° Southwest 275 316 19,700 1,380 Climbing Aus ATC (RADAR)
08:30PM -30.9171 152.6342 215° Southwest 275 316 20,900 1,380 Climbing Aus ATC (RADAR)
08:31PM -30.9533 152.6048 215° Southwest 273 314 21,700 1,440 Climbing Aus ATC (RADAR)
08:32PM -31.0021 152.5632 216° Southwest 259 298 23,000 1,320 Climbing Aus ATC (RADAR)
08:32PM -31.0264 152.5428 216° Southwest 258 297 23,400 780 Climbing Aus ATC (RADAR)
08:33PM -31.0905 152.4898 215° Southwest 265 305 24,200 480 Climbing Aus ATC (RADAR)
08:33PM -31.1173 152.4671 216° Southwest 281 323 24,200  Level Aus ATC (RADAR)
08:34PM -31.1573 152.4347 215° Southwest 301 346 24,200  Level Aus ATC (RADAR)
08:35PM -31.2112 152.3899 215° Southwest 319 367 24,200  Level Aus ATC (RADAR)
08:35PM -31.2618 152.3487 215° Southwest 333 383 24,200  Level Aus ATC (RADAR)
08:36PM -31.3197 152.3006 215° Southwest 342 394 24,200  Level Aus ATC (RADAR)
08:37PM -31.3516 152.2739 216° Southwest 341 392 24,200  Level Aus ATC (RADAR)
08:37PM -31.3969 152.2352 216° Southwest 344 396 24,200  Level Aus ATC (RADAR)
08:38PM -31.4831 152.1638 215° Southwest 351 404 24,200  Level Aus ATC (RADAR)
08:39PM -31.5170 152.1365 215° Southwest 356 410 24,200  Level Aus ATC (RADAR)
08:39PM -31.5669 152.0935 216° Southwest 346 398 24,200  Level Aus ATC (RADAR)
08:40PM -31.6167 152.0523 215° Southwest 355 409 24,200  Level Aus ATC (RADAR)
08:41PM -31.6634 152.0128 216° Southwest 355 409 24,200  Level Aus ATC (RADAR)
08:41PM -31.7306 151.9564 216° Southwest 356 410 24,200  Level Aus ATC (RADAR)
08:42PM -31.7639 151.9281 216° Southwest 356 410 24,200  Level Aus ATC (RADAR)
08:42PM -31.8104 151.8891 215° Southwest 353 406 24,200  Level Aus ATC (RADAR)
08:44PM -31.9019 151.8113 216° Southwest 348 400 24,200  Level Aus ATC (RADAR)
08:44PM -31.9387 151.7807 215° Southwest 341 392 24,200 -120 Level Aus ATC (RADAR)
08:45PM -31.9864 151.7404 216° Southwest 345 397 24,100 -120 Descending Aus ATC (RADAR)
08:45PM -32.0311 151.7027 216° Southwest 341 392 24,100  Level Aus ATC (RADAR)
08:46PM -32.0752 151.6650 216° Southwest 337 388 24,100  Level Aus ATC (RADAR)
08:47PM -32.1371 151.6124 216° Southwest 329 379 24,100  Level Aus ATC (RADAR)
08:47PM -32.1677 151.5865 216° Southwest 327 376 24,100  Level Aus ATC (RADAR)
08:48PM -32.2103 151.5501 216° Southwest 325 374 24,100  Level Aus ATC (RADAR)
08:49PM -32.2932 151.4796 216° Southwest 319 367 24,100  Level Aus ATC (RADAR)
08:49PM -32.3256 151.4520 216° Southwest 323 372 24,100  Level Aus ATC (RADAR)
08:50PM -32.3681 151.4154 216° Southwest 324 373 24,100  Level Aus ATC (RADAR)
08:50PM -32.4149 151.3756 216° Southwest 321 369 24,100  Level Aus ATC (RADAR)
08:51PM -32.4599 151.3373 216° Southwest 325 374 24,100  Level Aus ATC (RADAR)
08:52PM -32.5214 151.2840 216° Southwest 329 379 24,100  Level Aus ATC (RADAR)
08:52PM -32.5403 151.2681 215° Southwest 331 381 24,100 120 Level Aus ATC (RADAR)
08:53PM -32.5942 151.2529 193° South 342 394 24,200  Climbing Aus ATC (RADAR)
08:54PM -32.7006 151.2496 181° South 349 402 24,100 -300 Descending Aus ATC (RADAR)
08:54PM -32.7406 151.2474 183° South 343 395 23,800 -1,500 Descending Aus ATC (RADAR)
08:55PM -32.7976 151.2442 183° South 347 399 22,600 -1,980 Descending Aus ATC (RADAR)
08:55PM -32.8547 151.2412 183° South 344 396 21,500 -1,860 Descending Aus ATC (RADAR)
08:56PM -32.9108 151.2381 183° South 340 391 20,500 -1,860 Descending Aus ATC (RADAR)
08:57PM -32.9909 151.2344 182° South 339 390 18,900 -1,860 Descending Aus ATC (RADAR)
08:57PM -33.0306 151.2319 183° South 338 389 18,200 -1,800 Descending Aus ATC (RADAR)
08:58PM -33.0910 151.2286 183° South 341 392 17,000 -1,800 Descending Aus ATC (RADAR)
08:59PM -33.2001 151.2223 183° South 322 371 14,900 -1,800 Descending Aus ATC (RADAR)
08:59PM -33.2373 151.2204 182° South 317 365 14,200 -1,500 Descending Aus ATC (RADAR)
09:00PM -33.2867 151.2174 183° South 319 367 13,300 -1,680 Descending Aus ATC (RADAR)
09:01PM -33.3600 151.2138 182° South 300 345 11,900 -1,680 Descending Aus ATC (RADAR)
09:01PM -33.4156 151.2104 183° South 295 339 10,900 -1,200 Descending Aus ATC (RADAR)
09:02PM -33.4473 151.2086 183° South 275 316 10,600 -840 Descending Aus ATC (RADAR)
09:03PM -33.5082 151.2055 182° South 270 311 9,900 -660 Descending Aus ATC (RADAR)
09:04PM -33.6145 151.1999 183° South 262 302 9,000 -480 Descending Aus ATC (RADAR)
09:05PM -33.6126 151.1999 359° North 268 308 9,000 -120 Level Aus ATC (RADAR)
09:05PM -33.6311 151.1988 183° South 266 306 8,900 -420 Descending Aus ATC (RADAR)
09:06PM -33.7302 151.1981 180° South 257 296 8,400 -660 Descending Aus ATC (RADAR)
09:07PM -33.8004 151.2389 154° Southeast 250 288 8,000 -600 Descending Aus ATC (RADAR)
09:08PM -33.8474 151.2687 152° Southeast 246 283 7,600 -420 Descending Aus ATC (RADAR)
09:08PM -33.8714 151.2837 153° Southeast 248 285 7,500 -420 Descending Aus ATC (RADAR)
09:09PM -33.9422 151.3123 162° South 249 287 7,000 -480 Descending Aus ATC (RADAR)
09:10PM -33.9772 151.3245 164° South 243 280 6,800 -600 Descending Aus ATC (RADAR)
09:10PM -34.0105 151.3358 164° South 243 280 6,500 -660 Descending Aus ATC (RADAR)
09:11PM -34.0644 151.3537 165° South 249 287 6,000 -660 Descending Aus ATC (RADAR)
09:11PM -34.0937 151.3632 165° South 240 276 5,700 -840 Descending Aus ATC (RADAR)
09:12PM -34.1321 151.3682 174° South 237 273 5,200 -960 Descending Aus ATC (RADAR)
09:13PM -34.1557 151.3286 234° Southwest 226 260 4,600 -840 Descending Aus ATC (RADAR)
09:13PM -34.1631 151.2851 258° West 219 252 4,200 -1,020 Descending Aus ATC (RADAR)
09:14PM -34.1079 151.2316 321° Northwest 180 207 2,700 -1,080 Descending Aus ATC (RADAR)
09:15PM -34.0971 151.2267 339° North 169 194 2,500 -840 Descending Aus ATC (RADAR)
09:15PM -34.0700 151.2197 348° North 157 181 2,000 -900 Descending Aus ATC (RADAR)
09:16PM -34.0362 151.2109 348° North 142 163 1,200 -720 Descending Aus ATC (RADAR)
09:17PM -34.0179 151.2058 347° North 109 125 1,000 -540 Descending Aus ATC (RADAR)
09:18PM -33.9919 151.1993 348° North 115 132 500 -660 Descending Aus ATC (RADAR)
09:18PM -33.9818 151.1968 348° North 119 137 300 -660 Descending Aus ATC (RADAR)